Latest Weather Observations for Frankston

IDV60901

Issued at 11:11 pm EDT Monday 27 January 2020 (issued every 10 minutes, with the page automatically refreshed every 10 minutes)

About weather observations | Map of Melbourne area stations | Latest observations for Melbourne area | Other Formats
Station Details ID: 086371 Name: FRANKSTON AWS Lat: -38.15 Lon: 145.12 Height: 6.0 m
Data from the previous 72 hours. | See also: Recent months at Frankston
Date/Time
EDT
Temp
°C
App
Temp
°C
Dew
Point
°C
Rel
Hum
%
Delta-T
°C
Wind Press
QNH
hPa
Press
MSL
hPa
Rain since
9am
mm
Dir  Spd
km/h
Gust
km/h
Spd
kts
Gust
kts
27/11:00pm - - - - - SSE 13 19 7 10 - - -
27/10:30pm - - - - - SSE 11 19 6 10 - - -
27/10:00pm - - - - - SSE 9 13 5 7 - - -
27/09:30pm - - - - - S 9 15 5 8 - - -
27/09:00pm - - - - - S 11 17 6 9 - - -
27/08:30pm - - - - - S 13 26 7 14 - - -
27/08:00pm - - - - - S 13 20 7 11 - - -
27/07:30pm - - - - - S 13 26 7 14 - - -
27/07:00pm - - - - - S 13 26 7 14 - - -
27/06:30pm - - - - - S 13 20 7 11 - - -
27/06:00pm - - - - - S 13 26 7 14 - - -
27/05:30pm - - - - - S 9 15 5 8 - - -
27/05:00pm - - - - - SSW 13 19 7 10 - - -
27/04:30pm - - - - - SW 13 19 7 10 - - -
27/04:00pm - - - - - SSW 13 20 7 11 - - -
27/03:30pm - - - - - WSW 22 26 12 14 - - -
27/03:00pm - - - - - WSW 24 28 13 15 - - -
27/02:30pm - - - - - W 17 19 9 10 - - -
27/02:00pm - - - - - WSW 24 28 13 15 - - -
27/01:30pm - - - - - WNW 13 15 7 8 - - -
27/01:00pm - - - - - W 15 19 8 10 - - -
27/12:30pm - - - - - W 15 19 8 10 - - -
27/12:00pm - - - - - W 19 22 10 12 - - -
27/11:30am - - - - - W 15 19 8 10 - - -
27/11:00am - - - - - WSW 24 28 13 15 - - -
27/10:30am - - - - - WSW 22 26 12 14 - - -
27/10:00am - - - - - WNW 11 19 6 10 - - -
27/09:30am - - - - - NNW 7 9 4 5 - - -
27/09:00am - - - - - WNW 9 11 5 6 - - -
27/08:30am - - - - - CALM 0 0 0 0 - - -
27/08:00am - - - - - E 6 9 3 5 - - -
27/07:30am - - - - - CALM 0 0 0 0 - - -
27/07:00am - - - - - CALM 0 0 0 0 - - -
27/06:30am - - - - - CALM 0 0 0 0 - - -
27/06:00am - - - - - SSW 2 6 1 3 - - -
27/05:30am - - - - - SSE 2 7 1 4 - - -
27/05:00am - - - - - E 6 7 3 4 - - -
27/04:30am - - - - - SE 6 7 3 4 - - -
27/04:00am - - - - - SE 7 7 4 4 - - -
27/03:30am - - - - - SE 6 7 3 4 - - -
27/03:00am - - - - - ESE 6 9 3 5 - - -
27/02:30am - - - - - E 7 9 4 5 - - -
27/02:00am - - - - - E 9 11 5 6 - - -
27/01:30am - - - - - E 7 11 4 6 - - -
27/01:00am - - - - - ESE 7 11 4 6 - - -
27/12:30am - - - - - SSE 6 11 3 6 - - -
27/12:00am - - - - - SE 6 11 3 6 - - -
 
Date/Time
EDT
Temp
°C
App
Temp
°C
Dew
Point
°C
Rel
Hum
%
Delta-T
°C
Wind Press
QNH
hPa
Press
MSL
hPa
Rain since
9am
mm
Dir  Spd
km/h
Gust
km/h
Spd
kts
Gust
kts
26/11:30pm - - - - - SSE 6 9 3 5 - - -
26/11:00pm - - - - - S 7 11 4 6 - - -
26/10:30pm - - - - - SSE 6 9 3 5 - - -
26/10:00pm - - - - - SE 7 11 4 6 - - -
26/09:30pm - - - - - SE 9 15 5 8 - - -
26/09:00pm - - - - - SSW 11 22 6 12 - - -
26/08:30pm - - - - - S 15 24 8 13 - - -
26/08:00pm - - - - - S 15 26 8 14 - - -
26/07:30pm - - - - - SSW 15 26 8 14 - - -
26/07:00pm - - - - - S 15 26 8 14 - - -
26/06:30pm - - - - - SSE 15 22 8 12 - - -
26/06:00pm - - - - - SSE 11 17 6 9 - - -
26/05:30pm - - - - - ESE 11 19 6 10 - - -
26/05:00pm - - - - - WSW 24 30 13 16 - - -
26/04:30pm - - - - - W 24 28 13 15 - - -
26/04:00pm - - - - - WSW 24 28 13 15 - - -
26/03:30pm - - - - - W 20 24 11 13 - - -
26/03:00pm - - - - - W 15 19 8 10 - - -
26/02:30pm - - - - - WSW 15 20 8 11 - - -
26/02:00pm - - - - - SW 20 30 11 16 - - -
26/01:30pm - - - - - SW 22 30 12 16 - - -
26/01:00pm - - - - - WSW 19 26 10 14 - - -
26/12:30pm - - - - - W 11 15 6 8 - - -
26/12:00pm - - - - - WNW 13 15 7 8 - - -
26/11:30am - - - - - WNW 15 19 8 10 - - -
26/11:00am - - - - - WNW 13 17 7 9 - - -
26/10:30am - - - - - WNW 11 13 6 7 - - -
26/10:00am - - - - - WNW 13 19 7 10 - - -
26/09:30am - - - - - CALM 0 0 0 0 - - -
26/09:00am - - - - - CALM 0 0 0 0 - - -
26/08:30am - - - - - CALM 0 0 0 0 - - -
26/08:00am - - - - - CALM 0 2 0 1 - - -
26/07:30am - - - - - CALM 0 0 0 0 - - -
26/07:00am - - - - - CALM 0 0 0 0 - - -
26/06:30am - - - - - E 7 9 4 5 - - -
26/06:00am - - - - - CALM 0 4 0 2 - - -
26/05:30am - - - - - SSE 9 11 5 6 - - -
26/05:00am - - - - - SSE 9 11 5 6 - - -
26/04:30am - - - - - S 9 11 5 6 - - -
26/04:00am - - - - - SSE 6 7 3 4 - - -
26/03:30am - - - - - CALM 0 0 0 0 - - -
26/03:00am - - - - - CALM 0 0 0 0 - - -
26/02:30am - - - - - CALM 0 0 0 0 - - -
26/02:00am - - - - - SE 9 13 5 7 - - -
26/01:30am - - - - - SE 11 19 6 10 - - -
26/01:00am - - - - - SE 13 24 7 13 - - -
26/12:30am - - - - - SE 11 22 6 12 - - -
26/12:00am - - - - - SE 13 20 7 11 - - -
 
Date/Time
EDT
Temp
°C
App
Temp
°C
Dew
Point
°C
Rel
Hum
%
Delta-T
°C
Wind Press
QNH
hPa
Press
MSL
hPa
Rain since
9am
mm
Dir  Spd
km/h
Gust
km/h
Spd
kts
Gust
kts
25/11:30pm - - - - - SE 11 19 6 10 - - -
25/11:00pm - - - - - SE 13 22 7 12 - - -
25/10:30pm - - - - - SSE 15 30 8 16 - - -
25/10:00pm - - - - - SSE 17 28 9 15 - - -
25/09:30pm - - - - - SSE 17 26 9 14 - - -
25/09:00pm - - - - - SSE 17 24 9 13 - - -
25/08:30pm - - - - - SSE 19 30 10 16 - - -
25/08:00pm - - - - - SSE 19 30 10 16 - - -
25/07:30pm - - - - - SSE 19 30 10 16 - - -
25/07:00pm - - - - - S 20 32 11 17 - - -
25/06:30pm - - - - - SSE 17 30 9 16 - - -
25/06:00pm - - - - - S 15 26 8 14 - - -
25/05:30pm - - - - - SW 15 20 8 11 - - -
25/05:00pm - - - - - WNW 7 7 4 4 - - -
25/04:30pm - - - - - NW 7 7 4 4 - - -
25/04:00pm - - - - - NNW 6 7 3 4 - - -
25/03:30pm - - - - - W 9 11 5 6 - - -
25/03:00pm - - - - - W 4 9 2 5 - - -
25/02:30pm - - - - - CALM 0 6 0 3 - - -
25/02:00pm - - - - - W 7 9 4 5 - - -
25/01:30pm - - - - - WSW 9 11 5 6 - - -
25/01:00pm - - - - - WSW 9 11 5 6 - - -
25/12:30pm - - - - - W 7 9 4 5 - - -
25/12:00pm - - - - - NW 9 11 5 6 - - -
25/11:30am - - - - - NW 11 13 6 7 - - -
25/11:00am - - - - - NW 11 13 6 7 - - -
25/10:30am - - - - - NNW 9 11 5 6 - - -
25/10:00am - - - - - N 11 11 6 6 - - -
25/09:30am - - - - - N 13 15 7 8 - - -
25/09:00am - - - - - N 11 13 6 7 - - -
25/08:30am - - - - - NNE 9 13 5 7 - - -
25/08:00am - - - - - NE 6 7 3 4 - - -
25/07:30am - - - - - E 7 11 4 6 - - -
25/07:00am - - - - - E 7 9 4 5 - - -
25/06:30am - - - - - ESE 7 9 4 5 - - -
25/06:00am - - - - - ESE 7 9 4 5 - - -
25/05:30am - - - - - SE 9 11 5 6 - - -
25/05:00am - - - - - ESE 7 9 4 5 - - -
25/04:30am - - - - - E 4 9 2 5 - - -
25/04:00am - - - - - E 9 11 5 6 - - -
25/03:30am - - - - - E 7 9 4 5 - - -
25/03:00am - - - - - ESE 9 13 5 7 - - -
25/02:30am - - - - - SSE 13 17 7 9 - - -
25/02:00am - - - - - SE 11 15 6 8 - - -
25/01:30am - - - - - SSE 13 17 7 9 - - -
25/01:00am - - - - - ESE 11 13 6 7 - - -
25/12:30am - - - - - SSE 13 17 7 9 - - -
25/12:00am - - - - - ESE 11 13 6 7 - - -
 
Date/Time
EDT
Temp
°C
App
Temp
°C
Dew
Point
°C
Rel
Hum
%
Delta-T
°C
Wind Press
QNH
hPa
Press
MSL
hPa
Rain since
9am
mm
Dir  Spd
km/h
Gust
km/h
Spd
kts
Gust
kts
24/11:30pm - - - - - SE 9 13 5 7 - - -

Latest Capital City Observations: Canberra | Sydney | Melbourne | Brisbane | Adelaide | Perth | Hobart | Darwin

Other formats

Comma delimited format used in spreadsheet applications
http://www.bom.gov.au/fwo/IDV60901/IDV60901.94871.axf

JavaScript Object Notation format (JSON) in row-major order
http://www.bom.gov.au/fwo/IDV60901/IDV60901.94871.json

Data quality

Most of these data are generated automatically and are frequently updated. Quality checks on data are not normally performed. It is possible for incorrect values to appear. Refer to information at About Latest Weather Observations and please check the disclaimer before using these data.